sensor_id;sensor_type;location;lat;lon;timestamp;P1;durP1;ratioP1;P2;durP2;ratioP2
4084;SDS011;2057;50.858;6.572;2023-07-31T00:02:19;13.80;;;4.90;;
4084;SDS011;2057;50.858;6.572;2023-07-31T00:04:44;12.57;;;4.70;;
4084;SDS011;2057;50.858;6.572;2023-07-31T00:07:09;10.97;;;4.97;;
4084;SDS011;2057;50.858;6.572;2023-07-31T00:09:35;10.03;;;4.13;;
4084;SDS011;2057;50.858;6.572;2023-07-31T00:12:00;9.47;;;4.53;;
4084;SDS011;2057;50.858;6.572;2023-07-31T00:14:25;9.17;;;3.83;;
4084;SDS011;2057;50.858;6.572;2023-07-31T00:16:53;7.13;;;3.70;;
4084;SDS011;2057;50.858;6.572;2023-07-31T00:19:19;11.93;;;4.30;;
4084;SDS011;2057;50.858;6.572;2023-07-31T00:21:44;7.73;;;3.30;;
4084;SDS011;2057;50.858;6.572;2023-07-31T00:24:09;10.77;;;3.90;;
4084;SDS011;2057;50.858;6.572;2023-07-31T00:26:35;7.33;;;4.20;;
4084;SDS011;2057;50.858;6.572;2023-07-31T00:29:00;9.03;;;4.23;;
4084;SDS011;2057;50.858;6.572;2023-07-31T00:31:26;14.10;;;4.40;;
4084;SDS011;2057;50.858;6.572;2023-07-31T00:33:51;9.17;;;4.20;;
4084;SDS011;2057;50.858;6.572;2023-07-31T00:36:17;5.23;;;3.47;;
4084;SDS011;2057;50.858;6.572;2023-07-31T00:38:43;11.23;;;4.57;;
4084;SDS011;2057;50.858;6.572;2023-07-31T00:41:08;6.33;;;3.40;;
4084;SDS011;2057;50.858;6.572;2023-07-31T00:43:34;11.60;;;3.83;;
4084;SDS011;2057;50.858;6.572;2023-07-31T00:45:59;10.80;;;3.77;;
4084;SDS011;2057;50.858;6.572;2023-07-31T00:48:25;6.33;;;3.63;;
4084;SDS011;2057;50.858;6.572;2023-07-31T00:50:50;11.37;;;3.90;;
4084;SDS011;2057;50.858;6.572;2023-07-31T00:53:18;6.73;;;4.10;;
4084;SDS011;2057;50.858;6.572;2023-07-31T00:55:43;10.47;;;4.23;;
4084;SDS011;2057;50.858;6.572;2023-07-31T00:58:09;7.40;;;3.80;;
4084;SDS011;2057;50.858;6.572;2023-07-31T01:00:34;12.80;;;4.20;;
4084;SDS011;2057;50.858;6.572;2023-07-31T01:03:00;6.97;;;3.63;;
4084;SDS011;2057;50.858;6.572;2023-07-31T01:08:19;7.60;;;3.83;;
4084;SDS011;2057;50.858;6.572;2023-07-31T01:10:58;7.47;;;4.13;;
4084;SDS011;2057;50.858;6.572;2023-07-31T01:13:31;8.43;;;3.43;;
4084;SDS011;2057;50.858;6.572;2023-07-31T01:15:56;8.10;;;3.60;;
4084;SDS011;2057;50.858;6.572;2023-07-31T01:18:21;7.40;;;3.67;;
4084;SDS011;2057;50.858;6.572;2023-07-31T01:20:53;10.33;;;4.37;;
4084;SDS011;2057;50.858;6.572;2023-07-31T01:26:19;16.87;;;4.40;;
4084;SDS011;2057;50.858;6.572;2023-07-31T01:28:55;6.50;;;4.20;;
4084;SDS011;2057;50.858;6.572;2023-07-31T01:31:26;14.07;;;3.77;;
4084;SDS011;2057;50.858;6.572;2023-07-31T01:33:54;9.43;;;4.63;;
4084;SDS011;2057;50.858;6.572;2023-07-31T01:36:22;7.70;;;4.10;;
4084;SDS011;2057;50.858;6.572;2023-07-31T01:38:48;9.63;;;4.70;;
4084;SDS011;2057;50.858;6.572;2023-07-31T01:41:16;8.50;;;4.23;;
4084;SDS011;2057;50.858;6.572;2023-07-31T01:43:42;10.90;;;4.57;;
4084;SDS011;2057;50.858;6.572;2023-07-31T01:46:08;7.23;;;4.03;;
4084;SDS011;2057;50.858;6.572;2023-07-31T01:48:33;7.40;;;4.17;;
4084;SDS011;2057;50.858;6.572;2023-07-31T01:51:01;10.47;;;4.77;;
4084;SDS011;2057;50.858;6.572;2023-07-31T01:53:27;8.77;;;4.30;;
4084;SDS011;2057;50.858;6.572;2023-07-31T01:55:53;20.30;;;4.70;;
4084;SDS011;2057;50.858;6.572;2023-07-31T01:58:18;8.90;;;4.93;;
4084;SDS011;2057;50.858;6.572;2023-07-31T02:00:43;10.80;;;4.10;;
4084;SDS011;2057;50.858;6.572;2023-07-31T02:03:09;7.87;;;3.77;;
4084;SDS011;2057;50.858;6.572;2023-07-31T02:05:34;10.20;;;3.87;;
4084;SDS011;2057;50.858;6.572;2023-07-31T02:07:59;20.60;;;4.53;;
4084;SDS011;2057;50.858;6.572;2023-07-31T02:10:25;11.07;;;4.30;;
4084;SDS011;2057;50.858;6.572;2023-07-31T02:12:50;15.40;;;4.63;;
4084;SDS011;2057;50.858;6.572;2023-07-31T02:15:15;12.07;;;4.50;;
4084;SDS011;2057;50.858;6.572;2023-07-31T02:17:41;16.17;;;5.90;;
4084;SDS011;2057;50.858;6.572;2023-07-31T02:20:06;38.40;;;5.50;;
4084;SDS011;2057;50.858;6.572;2023-07-31T02:22:32;18.60;;;4.50;;
4084;SDS011;2057;50.858;6.572;2023-07-31T02:24:57;15.20;;;4.83;;
4084;SDS011;2057;50.858;6.572;2023-07-31T02:27:23;10.53;;;4.47;;
4084;SDS011;2057;50.858;6.572;2023-07-31T02:29:52;18.70;;;5.23;;
4084;SDS011;2057;50.858;6.572;2023-07-31T02:32:17;17.57;;;4.73;;
4084;SDS011;2057;50.858;6.572;2023-07-31T02:34:42;18.87;;;4.57;;
4084;SDS011;2057;50.858;6.572;2023-07-31T02:37:08;12.10;;;4.33;;
4084;SDS011;2057;50.858;6.572;2023-07-31T02:39:33;14.27;;;5.17;;
4084;SDS011;2057;50.858;6.572;2023-07-31T02:41:59;10.50;;;4.43;;
4084;SDS011;2057;50.858;6.572;2023-07-31T02:44:25;7.70;;;4.00;;
4084;SDS011;2057;50.858;6.572;2023-07-31T02:46:51;9.80;;;4.13;;
4084;SDS011;2057;50.858;6.572;2023-07-31T02:49:16;10.80;;;4.17;;
4084;SDS011;2057;50.858;6.572;2023-07-31T02:51:41;15.33;;;4.83;;
4084;SDS011;2057;50.858;6.572;2023-07-31T02:54:07;13.10;;;4.57;;
4084;SDS011;2057;50.858;6.572;2023-07-31T02:56:32;9.73;;;5.20;;
4084;SDS011;2057;50.858;6.572;2023-07-31T02:58:57;10.20;;;4.63;;
4084;SDS011;2057;50.858;6.572;2023-07-31T03:01:23;13.40;;;4.60;;
4084;SDS011;2057;50.858;6.572;2023-07-31T03:03:48;12.90;;;4.60;;
4084;SDS011;2057;50.858;6.572;2023-07-31T03:06:13;11.20;;;4.63;;
4084;SDS011;2057;50.858;6.572;2023-07-31T03:08:39;8.37;;;4.87;;
4084;SDS011;2057;50.858;6.572;2023-07-31T03:11:04;14.73;;;4.80;;
4084;SDS011;2057;50.858;6.572;2023-07-31T03:13:29;12.83;;;4.80;;
4084;SDS011;2057;50.858;6.572;2023-07-31T03:15:55;18.57;;;4.80;;
4084;SDS011;2057;50.858;6.572;2023-07-31T03:18:20;11.57;;;4.70;;
4084;SDS011;2057;50.858;6.572;2023-07-31T03:20:45;20.27;;;5.00;;
4084;SDS011;2057;50.858;6.572;2023-07-31T03:23:11;9.90;;;4.87;;
4084;SDS011;2057;50.858;6.572;2023-07-31T03:25:36;15.63;;;5.60;;
4084;SDS011;2057;50.858;6.572;2023-07-31T03:28:02;13.93;;;5.33;;
4084;SDS011;2057;50.858;6.572;2023-07-31T03:30:27;9.13;;;4.57;;
4084;SDS011;2057;50.858;6.572;2023-07-31T03:32:55;15.10;;;6.13;;
4084;SDS011;2057;50.858;6.572;2023-07-31T03:35:20;11.83;;;5.00;;
4084;SDS011;2057;50.858;6.572;2023-07-31T03:37:46;12.50;;;5.13;;
4084;SDS011;2057;50.858;6.572;2023-07-31T03:40:12;15.20;;;6.50;;
4084;SDS011;2057;50.858;6.572;2023-07-31T03:42:37;22.27;;;5.57;;
4084;SDS011;2057;50.858;6.572;2023-07-31T03:45:02;9.47;;;5.13;;
4084;SDS011;2057;50.858;6.572;2023-07-31T03:47:28;12.63;;;5.30;;
4084;SDS011;2057;50.858;6.572;2023-07-31T03:49:54;14.60;;;5.30;;
4084;SDS011;2057;50.858;6.572;2023-07-31T03:52:19;22.93;;;6.17;;
4084;SDS011;2057;50.858;6.572;2023-07-31T03:54:44;17.30;;;5.70;;
4084;SDS011;2057;50.858;6.572;2023-07-31T03:57:10;10.37;;;5.50;;
4084;SDS011;2057;50.858;6.572;2023-07-31T03:59:36;13.17;;;5.80;;
4084;SDS011;2057;50.858;6.572;2023-07-31T04:02:04;10.53;;;5.10;;
4084;SDS011;2057;50.858;6.572;2023-07-31T04:04:29;11.50;;;5.50;;
4084;SDS011;2057;50.858;6.572;2023-07-31T04:06:55;9.07;;;4.70;;
4084;SDS011;2057;50.858;6.572;2023-07-31T04:09:20;7.83;;;5.00;;
4084;SDS011;2057;50.858;6.572;2023-07-31T04:11:46;9.13;;;4.90;;
4084;SDS011;2057;50.858;6.572;2023-07-31T04:14:11;14.37;;;6.43;;
4084;SDS011;2057;50.858;6.572;2023-07-31T04:16:36;6.90;;;4.87;;
4084;SDS011;2057;50.858;6.572;2023-07-31T04:19:01;8.80;;;5.10;;
4084;SDS011;2057;50.858;6.572;2023-07-31T04:21:28;9.37;;;5.30;;
4084;SDS011;2057;50.858;6.572;2023-07-31T04:23:53;7.70;;;5.23;;
4084;SDS011;2057;50.858;6.572;2023-07-31T04:26:21;11.13;;;5.23;;
4084;SDS011;2057;50.858;6.572;2023-07-31T04:28:49;13.23;;;5.50;;
4084;SDS011;2057;50.858;6.572;2023-07-31T04:31:14;8.63;;;4.73;;
4084;SDS011;2057;50.858;6.572;2023-07-31T04:33:39;12.90;;;5.00;;
4084;SDS011;2057;50.858;6.572;2023-07-31T04:36:05;10.60;;;5.03;;
4084;SDS011;2057;50.858;6.572;2023-07-31T04:38:30;9.60;;;4.90;;
4084;SDS011;2057;50.858;6.572;2023-07-31T04:40:56;11.63;;;5.60;;
4084;SDS011;2057;50.858;6.572;2023-07-31T04:43:21;8.17;;;4.23;;
4084;SDS011;2057;50.858;6.572;2023-07-31T04:45:46;7.63;;;4.70;;
4084;SDS011;2057;50.858;6.572;2023-07-31T04:48:15;10.63;;;4.67;;
4084;SDS011;2057;50.858;6.572;2023-07-31T04:50:40;37.13;;;5.83;;
4084;SDS011;2057;50.858;6.572;2023-07-31T04:53:06;12.03;;;4.53;;
4084;SDS011;2057;50.858;6.572;2023-07-31T04:55:31;4.73;;;4.23;;
4084;SDS011;2057;50.858;6.572;2023-07-31T04:57:58;9.17;;;4.40;;
4084;SDS011;2057;50.858;6.572;2023-07-31T05:00:24;9.10;;;4.20;;
4084;SDS011;2057;50.858;6.572;2023-07-31T05:02:49;13.40;;;4.73;;
4084;SDS011;2057;50.858;6.572;2023-07-31T05:05:14;8.13;;;4.60;;
4084;SDS011;2057;50.858;6.572;2023-07-31T05:07:40;13.93;;;4.97;;
4084;SDS011;2057;50.858;6.572;2023-07-31T05:10:05;10.33;;;4.47;;
4084;SDS011;2057;50.858;6.572;2023-07-31T05:12:31;7.90;;;4.30;;
4084;SDS011;2057;50.858;6.572;2023-07-31T05:14:56;11.13;;;5.20;;
4084;SDS011;2057;50.858;6.572;2023-07-31T05:17:22;8.30;;;5.10;;
4084;SDS011;2057;50.858;6.572;2023-07-31T05:19:47;7.00;;;3.63;;
4084;SDS011;2057;50.858;6.572;2023-07-31T05:22:12;8.80;;;4.77;;
4084;SDS011;2057;50.858;6.572;2023-07-31T05:24:38;7.70;;;4.37;;
4084;SDS011;2057;50.858;6.572;2023-07-31T05:27:03;9.50;;;4.50;;
4084;SDS011;2057;50.858;6.572;2023-07-31T05:29:29;10.20;;;5.03;;
4084;SDS011;2057;50.858;6.572;2023-07-31T05:31:54;11.63;;;4.57;;
4084;SDS011;2057;50.858;6.572;2023-07-31T05:34:19;11.57;;;5.33;;
4084;SDS011;2057;50.858;6.572;2023-07-31T05:36:45;9.50;;;4.80;;
4084;SDS011;2057;50.858;6.572;2023-07-31T05:39:10;15.37;;;5.10;;
4084;SDS011;2057;50.858;6.572;2023-07-31T05:41:35;12.77;;;4.90;;
4084;SDS011;2057;50.858;6.572;2023-07-31T05:44:03;9.73;;;5.00;;
4084;SDS011;2057;50.858;6.572;2023-07-31T05:46:28;15.00;;;5.90;;
4084;SDS011;2057;50.858;6.572;2023-07-31T05:48:56;7.83;;;5.00;;
4084;SDS011;2057;50.858;6.572;2023-07-31T05:51:21;14.60;;;4.90;;
4084;SDS011;2057;50.858;6.572;2023-07-31T05:53:46;10.63;;;4.80;;
4084;SDS011;2057;50.858;6.572;2023-07-31T05:56:12;26.73;;;4.90;;
4084;SDS011;2057;50.858;6.572;2023-07-31T05:58:37;15.10;;;5.37;;
4084;SDS011;2057;50.858;6.572;2023-07-31T06:01:02;11.13;;;4.90;;
4084;SDS011;2057;50.858;6.572;2023-07-31T06:03:28;15.07;;;5.27;;
4084;SDS011;2057;50.858;6.572;2023-07-31T06:05:53;13.90;;;5.17;;
4084;SDS011;2057;50.858;6.572;2023-07-31T06:08:18;14.43;;;4.93;;
4084;SDS011;2057;50.858;6.572;2023-07-31T06:13:19;12.90;;;4.50;;
4084;SDS011;2057;50.858;6.572;2023-07-31T06:15:44;13.27;;;4.80;;
4084;SDS011;2057;50.858;6.572;2023-07-31T06:18:10;12.30;;;4.43;;
4084;SDS011;2057;50.858;6.572;2023-07-31T06:20:35;11.60;;;3.80;;
4084;SDS011;2057;50.858;6.572;2023-07-31T06:23:01;12.93;;;5.13;;
4084;SDS011;2057;50.858;6.572;2023-07-31T06:25:26;6.97;;;4.80;;
4084;SDS011;2057;50.858;6.572;2023-07-31T06:27:54;8.50;;;4.87;;
4084;SDS011;2057;50.858;6.572;2023-07-31T06:30:19;12.33;;;4.07;;
4084;SDS011;2057;50.858;6.572;2023-07-31T06:32:44;11.23;;;4.50;;
4084;SDS011;2057;50.858;6.572;2023-07-31T06:35:10;8.33;;;4.03;;
4084;SDS011;2057;50.858;6.572;2023-07-31T06:37:35;13.83;;;5.33;;
4084;SDS011;2057;50.858;6.572;2023-07-31T06:40:00;15.23;;;5.57;;
4084;SDS011;2057;50.858;6.572;2023-07-31T06:42:26;10.50;;;4.43;;
4084;SDS011;2057;50.858;6.572;2023-07-31T06:44:51;8.67;;;4.47;;
4084;SDS011;2057;50.858;6.572;2023-07-31T06:47:19;15.33;;;5.33;;
4084;SDS011;2057;50.858;6.572;2023-07-31T06:49:45;9.50;;;4.40;;
4084;SDS011;2057;50.858;6.572;2023-07-31T06:52:10;9.17;;;4.43;;
4084;SDS011;2057;50.858;6.572;2023-07-31T06:54:36;10.80;;;5.00;;
4084;SDS011;2057;50.858;6.572;2023-07-31T06:57:01;10.33;;;3.87;;
4084;SDS011;2057;50.858;6.572;2023-07-31T06:59:27;12.80;;;3.53;;
4084;SDS011;2057;50.858;6.572;2023-07-31T07:01:52;8.47;;;4.27;;
4084;SDS011;2057;50.858;6.572;2023-07-31T07:04:17;13.20;;;5.37;;
4084;SDS011;2057;50.858;6.572;2023-07-31T07:06:43;11.90;;;4.70;;
4084;SDS011;2057;50.858;6.572;2023-07-31T07:09:08;11.13;;;4.47;;
4084;SDS011;2057;50.858;6.572;2023-07-31T07:11:33;8.90;;;4.23;;
4084;SDS011;2057;50.858;6.572;2023-07-31T07:13:59;7.83;;;4.33;;
4084;SDS011;2057;50.858;6.572;2023-07-31T07:16:25;6.80;;;3.77;;
4084;SDS011;2057;50.858;6.572;2023-07-31T07:18:50;14.93;;;4.13;;
4084;SDS011;2057;50.858;6.572;2023-07-31T07:21:16;8.80;;;5.20;;
4084;SDS011;2057;50.858;6.572;2023-07-31T07:23:43;7.97;;;4.40;;
4084;SDS011;2057;50.858;6.572;2023-07-31T07:26:08;7.80;;;4.30;;
4084;SDS011;2057;50.858;6.572;2023-07-31T07:28:33;9.00;;;3.97;;
4084;SDS011;2057;50.858;6.572;2023-07-31T07:30:59;4.87;;;3.33;;
4084;SDS011;2057;50.858;6.572;2023-07-31T07:33:24;11.67;;;3.90;;
4084;SDS011;2057;50.858;6.572;2023-07-31T07:35:49;6.97;;;4.20;;
4084;SDS011;2057;50.858;6.572;2023-07-31T07:38:15;10.63;;;5.33;;
4084;SDS011;2057;50.858;6.572;2023-07-31T07:40:40;6.90;;;3.10;;
4084;SDS011;2057;50.858;6.572;2023-07-31T07:43:06;8.80;;;4.07;;
4084;SDS011;2057;50.858;6.572;2023-07-31T07:45:31;8.83;;;4.03;;
4084;SDS011;2057;50.858;6.572;2023-07-31T07:47:56;8.90;;;3.90;;
4084;SDS011;2057;50.858;6.572;2023-07-31T07:50:22;7.83;;;4.10;;
4084;SDS011;2057;50.858;6.572;2023-07-31T07:52:48;7.03;;;3.37;;
4084;SDS011;2057;50.858;6.572;2023-07-31T07:55:13;11.57;;;4.13;;
4084;SDS011;2057;50.858;6.572;2023-07-31T07:57:39;7.97;;;4.10;;
4084;SDS011;2057;50.858;6.572;2023-07-31T08:00:04;12.33;;;3.87;;
4084;SDS011;2057;50.858;6.572;2023-07-31T08:02:30;7.30;;;4.00;;
4084;SDS011;2057;50.858;6.572;2023-07-31T08:04:56;5.70;;;3.50;;
4084;SDS011;2057;50.858;6.572;2023-07-31T08:07:21;5.10;;;3.10;;
4084;SDS011;2057;50.858;6.572;2023-07-31T08:09:46;4.40;;;3.00;;
4084;SDS011;2057;50.858;6.572;2023-07-31T08:12:12;4.70;;;3.17;;
4084;SDS011;2057;50.858;6.572;2023-07-31T08:14:37;9.60;;;3.90;;
4084;SDS011;2057;50.858;6.572;2023-07-31T08:17:03;8.30;;;4.17;;
4084;SDS011;2057;50.858;6.572;2023-07-31T08:19:28;6.90;;;3.27;;
4084;SDS011;2057;50.858;6.572;2023-07-31T08:21:54;9.40;;;3.27;;
4084;SDS011;2057;50.858;6.572;2023-07-31T08:24:19;5.00;;;2.73;;
4084;SDS011;2057;50.858;6.572;2023-07-31T08:26:45;6.17;;;3.53;;
4084;SDS011;2057;50.858;6.572;2023-07-31T08:29:10;6.90;;;3.50;;
4084;SDS011;2057;50.858;6.572;2023-07-31T08:31:36;6.23;;;2.90;;
4084;SDS011;2057;50.858;6.572;2023-07-31T08:34:01;3.83;;;3.20;;
4084;SDS011;2057;50.858;6.572;2023-07-31T08:36:26;7.43;;;3.53;;
4084;SDS011;2057;50.858;6.572;2023-07-31T08:38:52;7.07;;;3.70;;
4084;SDS011;2057;50.858;6.572;2023-07-31T08:41:18;5.80;;;3.40;;
4084;SDS011;2057;50.858;6.572;2023-07-31T08:43:43;4.00;;;3.10;;
4084;SDS011;2057;50.858;6.572;2023-07-31T08:46:11;7.47;;;2.70;;
4084;SDS011;2057;50.858;6.572;2023-07-31T08:48:37;19.53;;;2.80;;
4084;SDS011;2057;50.858;6.572;2023-07-31T08:51:13;6.40;;;3.10;;
4084;SDS011;2057;50.858;6.572;2023-07-31T08:53:39;7.77;;;2.67;;
4084;SDS011;2057;50.858;6.572;2023-07-31T08:56:04;8.73;;;3.30;;
4084;SDS011;2057;50.858;6.572;2023-07-31T08:58:33;7.40;;;3.10;;
4084;SDS011;2057;50.858;6.572;2023-07-31T09:01:01;7.63;;;3.40;;
4084;SDS011;2057;50.858;6.572;2023-07-31T09:03:28;7.13;;;3.40;;
4084;SDS011;2057;50.858;6.572;2023-07-31T09:05:58;7.63;;;3.70;;
4084;SDS011;2057;50.858;6.572;2023-07-31T09:08:24;4.20;;;2.87;;
4084;SDS011;2057;50.858;6.572;2023-07-31T09:10:55;14.53;;;3.67;;
4084;SDS011;2057;50.858;6.572;2023-07-31T09:13:24;5.50;;;3.53;;
4084;SDS011;2057;50.858;6.572;2023-07-31T09:15:50;5.63;;;2.77;;
4084;SDS011;2057;50.858;6.572;2023-07-31T09:18:15;4.13;;;2.80;;
4084;SDS011;2057;50.858;6.572;2023-07-31T09:20:44;5.90;;;3.17;;
4084;SDS011;2057;50.858;6.572;2023-07-31T09:23:10;5.90;;;3.80;;
4084;SDS011;2057;50.858;6.572;2023-07-31T09:25:37;14.20;;;2.70;;
4084;SDS011;2057;50.858;6.572;2023-07-31T09:28:04;5.00;;;2.93;;
4084;SDS011;2057;50.858;6.572;2023-07-31T09:30:30;7.10;;;3.10;;
4084;SDS011;2057;50.858;6.572;2023-07-31T09:33:03;8.63;;;3.53;;
4084;SDS011;2057;50.858;6.572;2023-07-31T09:35:33;6.27;;;3.20;;
4084;SDS011;2057;50.858;6.572;2023-07-31T09:38:01;5.27;;;2.80;;
4084;SDS011;2057;50.858;6.572;2023-07-31T09:40:30;5.83;;;2.90;;
4084;SDS011;2057;50.858;6.572;2023-07-31T09:43:00;5.77;;;3.07;;
4084;SDS011;2057;50.858;6.572;2023-07-31T09:45:27;15.13;;;4.03;;
4084;SDS011;2057;50.858;6.572;2023-07-31T09:47:56;5.73;;;3.03;;
4084;SDS011;2057;50.858;6.572;2023-07-31T09:50:22;5.40;;;3.43;;
4084;SDS011;2057;50.858;6.572;2023-07-31T09:52:49;11.33;;;3.53;;
4084;SDS011;2057;50.858;6.572;2023-07-31T09:55:15;8.57;;;3.43;;
4084;SDS011;2057;50.858;6.572;2023-07-31T09:57:41;12.50;;;4.47;;
4084;SDS011;2057;50.858;6.572;2023-07-31T10:00:09;6.63;;;3.27;;
4084;SDS011;2057;50.858;6.572;2023-07-31T10:02:36;6.80;;;3.03;;
4084;SDS011;2057;50.858;6.572;2023-07-31T10:05:03;5.07;;;3.40;;
4084;SDS011;2057;50.858;6.572;2023-07-31T10:07:36;3.80;;;2.60;;
4084;SDS011;2057;50.858;6.572;2023-07-31T10:10:06;10.07;;;3.40;;
4084;SDS011;2057;50.858;6.572;2023-07-31T10:12:36;3.13;;;2.50;;
4084;SDS011;2057;50.858;6.572;2023-07-31T10:15:03;8.57;;;3.40;;
4084;SDS011;2057;50.858;6.572;2023-07-31T10:17:33;3.50;;;2.70;;
4084;SDS011;2057;50.858;6.572;2023-07-31T10:20:03;6.50;;;2.77;;
4084;SDS011;2057;50.858;6.572;2023-07-31T10:22:30;2.70;;;2.30;;
4084;SDS011;2057;50.858;6.572;2023-07-31T10:25:00;6.53;;;2.67;;
4084;SDS011;2057;50.858;6.572;2023-07-31T10:27:26;10.27;;;2.90;;
4084;SDS011;2057;50.858;6.572;2023-07-31T10:29:52;3.67;;;2.43;;
4084;SDS011;2057;50.858;6.572;2023-07-31T10:32:20;4.43;;;2.00;;
4084;SDS011;2057;50.858;6.572;2023-07-31T10:34:49;5.63;;;1.80;;
4084;SDS011;2057;50.858;6.572;2023-07-31T10:37:26;2.80;;;2.33;;
4084;SDS011;2057;50.858;6.572;2023-07-31T10:39:57;1.60;;;1.47;;
4084;SDS011;2057;50.858;6.572;2023-07-31T10:44:56;3.73;;;1.50;;
4084;SDS011;2057;50.858;6.572;2023-07-31T10:47:23;1.57;;;1.43;;
4084;SDS011;2057;50.858;6.572;2023-07-31T10:49:48;2.20;;;1.40;;
4084;SDS011;2057;50.858;6.572;2023-07-31T10:52:15;3.47;;;1.30;;
4084;SDS011;2057;50.858;6.572;2023-07-31T10:54:48;1.60;;;1.50;;
4084;SDS011;2057;50.858;6.572;2023-07-31T10:57:20;1.43;;;1.33;;
4084;SDS011;2057;50.858;6.572;2023-07-31T10:59:50;3.10;;;1.57;;
4084;SDS011;2057;50.858;6.572;2023-07-31T11:02:27;4.93;;;2.10;;
4084;SDS011;2057;50.858;6.572;2023-07-31T11:05:06;3.13;;;1.73;;
4084;SDS011;2057;50.858;6.572;2023-07-31T11:07:47;1.83;;;1.63;;
4084;SDS011;2057;50.858;6.572;2023-07-31T11:10:16;1.33;;;1.20;;
4084;SDS011;2057;50.858;6.572;2023-07-31T11:12:42;1.20;;;1.10;;
4084;SDS011;2057;50.858;6.572;2023-07-31T11:15:07;2.40;;;1.20;;
4084;SDS011;2057;50.858;6.572;2023-07-31T11:17:37;1.77;;;1.10;;
4084;SDS011;2057;50.858;6.572;2023-07-31T11:20:04;2.67;;;1.50;;
4084;SDS011;2057;50.858;6.572;2023-07-31T11:22:29;1.20;;;1.10;;
4084;SDS011;2057;50.858;6.572;2023-07-31T11:24:55;2.40;;;1.00;;
4084;SDS011;2057;50.858;6.572;2023-07-31T11:27:21;1.73;;;1.03;;
4084;SDS011;2057;50.858;6.572;2023-07-31T11:29:46;2.60;;;1.10;;
4084;SDS011;2057;50.858;6.572;2023-07-31T11:32:21;1.20;;;1.10;;
4084;SDS011;2057;50.858;6.572;2023-07-31T11:34:54;2.80;;;1.60;;
4084;SDS011;2057;50.858;6.572;2023-07-31T11:37:19;1.07;;;0.97;;
4084;SDS011;2057;50.858;6.572;2023-07-31T11:40:00;1.20;;;1.10;;
4084;SDS011;2057;50.858;6.572;2023-07-31T11:42:26;1.30;;;1.20;;
4084;SDS011;2057;50.858;6.572;2023-07-31T11:44:51;4.17;;;2.10;;
4084;SDS011;2057;50.858;6.572;2023-07-31T11:47:16;2.13;;;1.13;;
4084;SDS011;2057;50.858;6.572;2023-07-31T11:49:43;1.50;;;1.40;;
4084;SDS011;2057;50.858;6.572;2023-07-31T11:52:09;2.90;;;1.77;;
4084;SDS011;2057;50.858;6.572;2023-07-31T11:54:35;1.70;;;1.60;;
4084;SDS011;2057;50.858;6.572;2023-07-31T11:57:01;1.63;;;1.53;;
4084;SDS011;2057;50.858;6.572;2023-07-31T11:59:27;3.00;;;2.07;;
4084;SDS011;2057;50.858;6.572;2023-07-31T12:01:53;3.37;;;2.00;;
4084;SDS011;2057;50.858;6.572;2023-07-31T12:04:19;1.90;;;1.70;;
4084;SDS011;2057;50.858;6.572;2023-07-31T12:06:46;2.50;;;1.53;;
4084;SDS011;2057;50.858;6.572;2023-07-31T12:09:15;2.10;;;2.00;;
4084;SDS011;2057;50.858;6.572;2023-07-31T12:11:43;3.70;;;2.30;;
4084;SDS011;2057;50.858;6.572;2023-07-31T12:14:23;4.73;;;2.20;;
4084;SDS011;2057;50.858;6.572;2023-07-31T12:17:00;2.50;;;2.27;;
4084;SDS011;2057;50.858;6.572;2023-07-31T12:19:29;2.87;;;2.57;;
4084;SDS011;2057;50.858;6.572;2023-07-31T12:21:58;2.63;;;2.43;;
4084;SDS011;2057;50.858;6.572;2023-07-31T12:24:26;5.83;;;2.60;;
4084;SDS011;2057;50.858;6.572;2023-07-31T12:26:51;7.90;;;3.30;;
4084;SDS011;2057;50.858;6.572;2023-07-31T12:29:17;5.50;;;2.90;;
4084;SDS011;2057;50.858;6.572;2023-07-31T12:31:45;4.60;;;3.10;;
4084;SDS011;2057;50.858;6.572;2023-07-31T12:34:17;5.20;;;3.33;;
4084;SDS011;2057;50.858;6.572;2023-07-31T12:36:43;3.43;;;2.80;;
4084;SDS011;2057;50.858;6.572;2023-07-31T12:39:09;4.67;;;3.20;;
4084;SDS011;2057;50.858;6.572;2023-07-31T12:41:35;6.77;;;3.70;;
4084;SDS011;2057;50.858;6.572;2023-07-31T12:44:00;3.20;;;2.90;;
4084;SDS011;2057;50.858;6.572;2023-07-31T12:46:25;5.70;;;3.57;;
4084;SDS011;2057;50.858;6.572;2023-07-31T12:48:51;3.40;;;2.53;;
4084;SDS011;2057;50.858;6.572;2023-07-31T12:51:16;5.97;;;3.73;;
4084;SDS011;2057;50.858;6.572;2023-07-31T12:53:44;4.13;;;3.53;;
4084;SDS011;2057;50.858;6.572;2023-07-31T12:56:10;4.87;;;2.80;;
4084;SDS011;2057;50.858;6.572;2023-07-31T12:58:35;4.53;;;2.90;;
4084;SDS011;2057;50.858;6.572;2023-07-31T13:01:00;2.70;;;2.50;;
4084;SDS011;2057;50.858;6.572;2023-07-31T13:03:27;3.70;;;2.70;;
4084;SDS011;2057;50.858;6.572;2023-07-31T13:05:52;3.30;;;3.00;;
4084;SDS011;2057;50.858;6.572;2023-07-31T13:08:17;8.87;;;3.30;;
4084;SDS011;2057;50.858;6.572;2023-07-31T13:10:43;2.80;;;2.40;;
4084;SDS011;2057;50.858;6.572;2023-07-31T13:13:09;3.27;;;2.57;;
4084;SDS011;2057;50.858;6.572;2023-07-31T13:15:34;3.80;;;3.03;;
4084;SDS011;2057;50.858;6.572;2023-07-31T13:18:00;5.17;;;3.27;;
4084;SDS011;2057;50.858;6.572;2023-07-31T13:20:25;2.43;;;2.20;;
4084;SDS011;2057;50.858;6.572;2023-07-31T13:22:51;3.87;;;2.70;;
4084;SDS011;2057;50.858;6.572;2023-07-31T13:25:18;3.30;;;2.50;;
4084;SDS011;2057;50.858;6.572;2023-07-31T13:27:44;3.83;;;2.03;;
4084;SDS011;2057;50.858;6.572;2023-07-31T13:30:09;6.20;;;2.70;;
4084;SDS011;2057;50.858;6.572;2023-07-31T13:32:35;3.13;;;2.40;;
4084;SDS011;2057;50.858;6.572;2023-07-31T13:35:04;2.93;;;2.30;;
4084;SDS011;2057;50.858;6.572;2023-07-31T13:37:33;3.83;;;2.20;;
4084;SDS011;2057;50.858;6.572;2023-07-31T13:39:58;2.87;;;2.60;;
4084;SDS011;2057;50.858;6.572;2023-07-31T13:42:23;3.67;;;3.20;;
4084;SDS011;2057;50.858;6.572;2023-07-31T13:44:49;3.23;;;2.90;;
4084;SDS011;2057;50.858;6.572;2023-07-31T13:47:14;4.93;;;3.17;;
4084;SDS011;2057;50.858;6.572;2023-07-31T13:49:40;5.30;;;3.00;;
4084;SDS011;2057;50.858;6.572;2023-07-31T13:52:06;4.40;;;3.80;;
4084;SDS011;2057;50.858;6.572;2023-07-31T13:54:32;3.73;;;3.40;;
4084;SDS011;2057;50.858;6.572;2023-07-31T13:56:57;4.43;;;3.00;;
4084;SDS011;2057;50.858;6.572;2023-07-31T13:59:23;5.57;;;3.70;;
4084;SDS011;2057;50.858;6.572;2023-07-31T14:01:48;5.63;;;3.10;;
4084;SDS011;2057;50.858;6.572;2023-07-31T14:04:15;3.40;;;2.90;;
4084;SDS011;2057;50.858;6.572;2023-07-31T14:06:40;3.40;;;2.60;;
4084;SDS011;2057;50.858;6.572;2023-07-31T14:09:06;3.80;;;3.43;;
4084;SDS011;2057;50.858;6.572;2023-07-31T14:11:31;4.23;;;3.63;;
4084;SDS011;2057;50.858;6.572;2023-07-31T14:13:57;6.33;;;4.67;;
4084;SDS011;2057;50.858;6.572;2023-07-31T14:16:23;5.33;;;4.20;;
4084;SDS011;2057;50.858;6.572;2023-07-31T14:18:48;6.67;;;4.70;;
4084;SDS011;2057;50.858;6.572;2023-07-31T14:21:14;5.97;;;4.67;;
4084;SDS011;2057;50.858;6.572;2023-07-31T14:23:40;6.53;;;4.37;;
4084;SDS011;2057;50.858;6.572;2023-07-31T14:26:05;5.83;;;4.07;;
4084;SDS011;2057;50.858;6.572;2023-07-31T14:28:31;5.20;;;4.30;;
4084;SDS011;2057;50.858;6.572;2023-07-31T14:30:56;7.23;;;5.30;;
4084;SDS011;2057;50.858;6.572;2023-07-31T14:33:22;7.17;;;4.87;;
4084;SDS011;2057;50.858;6.572;2023-07-31T14:35:47;5.73;;;3.97;;
4084;SDS011;2057;50.858;6.572;2023-07-31T14:38:12;4.40;;;4.00;;
4084;SDS011;2057;50.858;6.572;2023-07-31T14:40:38;4.07;;;3.40;;
4084;SDS011;2057;50.858;6.572;2023-07-31T14:43:03;5.77;;;3.90;;
4084;SDS011;2057;50.858;6.572;2023-07-31T14:45:29;6.67;;;4.53;;
4084;SDS011;2057;50.858;6.572;2023-07-31T14:47:54;6.17;;;3.63;;
4084;SDS011;2057;50.858;6.572;2023-07-31T14:50:20;6.20;;;3.53;;
4084;SDS011;2057;50.858;6.572;2023-07-31T14:52:48;6.70;;;4.00;;
4084;SDS011;2057;50.858;6.572;2023-07-31T14:55:14;7.10;;;4.70;;
4084;SDS011;2057;50.858;6.572;2023-07-31T14:57:40;6.83;;;4.10;;
4084;SDS011;2057;50.858;6.572;2023-07-31T15:00:05;6.97;;;4.30;;
4084;SDS011;2057;50.858;6.572;2023-07-31T15:02:34;5.03;;;3.47;;
4084;SDS011;2057;50.858;6.572;2023-07-31T15:05:00;7.20;;;3.67;;
4084;SDS011;2057;50.858;6.572;2023-07-31T15:07:28;6.00;;;4.10;;
4084;SDS011;2057;50.858;6.572;2023-07-31T15:09:56;9.03;;;4.20;;
4084;SDS011;2057;50.858;6.572;2023-07-31T15:12:21;6.70;;;4.47;;
4084;SDS011;2057;50.858;6.572;2023-07-31T15:14:48;6.73;;;4.40;;
4084;SDS011;2057;50.858;6.572;2023-07-31T15:17:14;5.43;;;4.00;;